Time;durP1;ratioP1;P1;durP2;ratioP2;P2;SDS_P1;SDS_P2;PMS_P1;PMS_P2;Temp;Humidity;BMP_temperature;BMP_pressure;BME280_temperature;BME280_humidity;BME280_pressure;Samples;Min_cycle;Max_cycle;Signal;HPM_P1;HPM_P2
2023/03/23 00:01:24;;;;;;;;;;;;;;;27.96;37.18;93800.63;5026935;28;8132;-56
2023/03/23 00:04:03;;;;;;;;;;;;;;;27.96;37.40;93791.59;5007234;28;9030;-56
2023/03/23 00:07:06;;;;;;;;;;;;;;;27.96;37.45;93799.88;5011456;28;7524;-55
2023/03/23 00:09:53;;;;;;;;;;;;;;;27.96;37.41;93799.88;4971010;28;7403;-56
2023/03/23 00:12:34;;;;;;;;;;;;;;;27.91;37.13;93782.16;4938897;28;7277;-56
2023/03/23 00:15:07;;;;;;;;;;;;;;;27.93;37.38;93793.41;4988447;28;7339;-56
2023/03/23 00:17:35;;;;;;;;;;;;;;;27.93;37.77;93789.88;4989469;28;7522;-56
2023/03/23 00:20:05;;;;;;;;;;;;;;;27.91;37.58;93787.69;4952574;28;7498;-55
2023/03/23 00:22:37;;;;;;;;;;;;;;;27.92;37.59;93786.41;4969214;28;9268;-55
2023/03/23 00:25:12;;;;;;;;;;;;;;;27.92;37.39;93791.94;4989151;28;7247;-56
2023/03/23 00:28:26;;;;;;;;;;;;;;;27.93;37.33;93798.19;4989232;28;7280;-56
2023/03/23 00:31:12;;;;;;;;;;;;;;;27.93;37.22;93795.41;4937403;28;7463;-56
2023/03/23 00:33:42;;;;;;;;;;;;;;;27.90;37.53;93791.72;4949730;28;7497;-55
2023/03/23 00:36:11;;;;;;;;;;;;;;;27.92;37.21;93799.47;4917865;29;6988;-55
2023/03/23 00:38:47;;;;;;;;;;;;;;;27.91;37.69;93790.44;4947201;28;7301;-56
2023/03/23 00:41:14;;;;;;;;;;;;;;;27.90;37.22;93791.72;4908293;29;7544;-55
2023/03/23 00:43:42;;;;;;;;;;;;;;;27.90;37.42;93793.75;4928984;28;8842;-56
2023/03/23 00:46:10;;;;;;;;;;;;;;;27.90;37.33;93786.22;4968011;28;7259;-56
2023/03/23 00:49:06;;;;;;;;;;;;;;;27.91;37.21;93792.47;4982082;28;7265;-55
2023/03/23 00:51:36;;;;;;;;;;;;;;;27.92;37.42;93794.69;4926215;29;9143;-56
2023/03/23 00:54:02;;;;;;;;;;;;;;;27.91;37.13;93786.94;4927373;29;8444;-55
2023/03/23 00:56:30;;;;;;;;;;;;;;;27.89;37.39;93781.19;4923770;29;9726;-55
2023/03/23 00:58:56;;;;;;;;;;;;;;;27.92;37.38;93788.41;4925039;29;7411;-56
2023/03/23 01:01:22;;;;;;;;;;;;;;;27.91;37.22;93784.16;4925991;29;8930;-55
2023/03/23 01:03:52;;;;;;;;;;;;;;;27.87;37.14;93789.28;4917251;29;9298;-55
2023/03/23 01:06:34;;;;;;;;;;;;;;;27.88;37.49;93780.47;4932274;29;7500;-55
2023/03/23 01:09:02;;;;;;;;;;;;;;;27.90;37.31;93771.63;4951495;28;7394;-55
2023/03/23 01:12:01;;;;;;;;;;;;;;;27.88;37.49;93782.50;4937158;28;9185;-56
2023/03/23 01:14:38;;;;;;;;;;;;;;;27.88;37.41;93776.97;4952915;28;7260;-56
2023/03/23 01:17:14;;;;;;;;;;;;;;;27.88;36.81;93788.03;4953304;28;7213;-55
2023/03/23 01:20:00;;;;;;;;;;;;;;;27.89;37.20;93778.44;4944026;28;6962;-55
2023/03/23 01:22:26;;;;;;;;;;;;;;;27.89;36.91;93772.91;4953174;28;9245;-55
2023/03/23 01:25:28;;;;;;;;;;;;;;;27.89;37.31;93789.50;4938454;28;7027;-56
2023/03/23 01:27:57;;;;;;;;;;;;;;;27.87;37.34;93770.69;4935471;28;9114;-56
2023/03/23 01:30:29;;;;;;;;;;;;;;;27.86;37.61;93774.72;4972004;28;7005;-56
2023/03/23 01:33:05;;;;;;;;;;;;;;;27.85;37.69;93772.50;4990039;28;9112;-56
2023/03/23 01:35:31;;;;;;;;;;;;;;;27.86;37.60;93777.50;4965080;28;6994;-56
2023/03/23 01:38:01;;;;;;;;;;;;;;;27.85;37.39;93773.25;4958920;28;7429;-56
2023/03/23 01:40:41;;;;;;;;;;;;;;;27.84;37.40;93765.50;4979919;28;7434;-56
2023/03/23 01:43:58;;;;;;;;;;;;;;;27.83;37.58;93766.78;4970814;28;7612;-56
2023/03/23 01:46:37;;;;;;;;;;;;;;;27.82;37.35;93768.09;4946015;28;9342;-56
2023/03/23 01:49:16;;;;;;;;;;;;;;;27.82;37.29;93777.09;4953490;28;9048;-56
2023/03/23 01:52:05;;;;;;;;;;;;;;;27.82;37.55;93774.31;4957216;28;7092;-56
2023/03/23 01:54:38;;;;;;;;;;;;;;;27.82;37.40;93779.13;4938794;29;7550;-56
2023/03/23 01:57:13;;;;;;;;;;;;;;;27.83;37.37;93786.13;4944693;28;7294;-56
2023/03/23 01:59:44;;;;;;;;;;;;;;;27.83;37.42;93786.88;4952671;28;7551;-56
2023/03/23 02:02:14;;;;;;;;;;;;;;;27.84;37.33;93793.16;4952572;28;9239;-56
2023/03/23 02:04:44;;;;;;;;;;;;;;;27.83;37.27;93788.91;4963009;28;9199;-56
2023/03/23 02:07:13;;;;;;;;;;;;;;;27.82;37.60;93790.91;4947352;28;8614;-56
2023/03/23 02:09:40;;;;;;;;;;;;;;;27.83;37.56;93786.13;4973151;28;7221;-56
2023/03/23 02:12:07;;;;;;;;;;;;;;;27.83;37.47;93795.16;4954220;28;7247;-56
2023/03/23 02:14:34;;;;;;;;;;;;;;;27.84;37.23;93798.69;4971519;28;7462;-56
2023/03/23 02:17:11;;;;;;;;;;;;;;;27.86;37.29;93801.66;4960744;28;9302;-56
2023/03/23 02:20:23;;;;;;;;;;;;;;;27.86;37.22;93796.13;4968423;28;9411;-56
2023/03/23 02:23:31;;;;;;;;;;;;;;;27.86;37.37;93802.38;4966770;28;9415;-56
2023/03/23 02:26:24;;;;;;;;;;;;;;;27.83;36.85;93799.94;5013735;28;6864;-56
2023/03/23 02:29:11;;;;;;;;;;;;;;;27.83;36.73;93802.72;5018380;28;9381;-56
2023/03/23 02:31:48;;;;;;;;;;;;;;;27.84;37.49;93804.22;5011276;28;7433;-56
2023/03/23 02:34:48;;;;;;;;;;;;;;;27.83;37.29;93788.91;5006437;28;7549;-56
2023/03/23 02:37:26;;;;;;;;;;;;;;;27.83;37.39;93797.19;5019288;28;7361;-56
2023/03/23 02:40:08;;;;;;;;;;;;;;;27.84;37.40;93784.88;5006365;28;9271;-56
2023/03/23 02:42:41;;;;;;;;;;;;;;;27.82;37.03;93779.13;4998629;28;8763;-56
2023/03/23 02:45:10;;;;;;;;;;;;;;;27.80;37.66;93776.91;5017892;28;7026;-56
2023/03/23 02:47:41;;;;;;;;;;;;;;;27.79;37.54;93777.44;5019473;28;7418;-56
2023/03/23 02:50:16;;;;;;;;;;;;;;;27.79;37.45;93780.22;5014674;28;9171;-56
2023/03/23 02:52:48;;;;;;;;;;;;;;;27.79;36.89;93774.69;5019842;28;7262;-56
2023/03/23 02:55:18;;;;;;;;;;;;;;;27.77;37.44;93775.22;5012235;28;7060;-56
2023/03/23 02:57:47;;;;;;;;;;;;;;;27.79;37.41;93766.38;5036929;28;8382;-56
2023/03/23 03:00:16;;;;;;;;;;;;;;;27.76;37.63;93764.69;5004494;28;8721;-56
2023/03/23 03:03:02;;;;;;;;;;;;;;;27.77;37.32;93768.94;5006903;28;9326;-56
2023/03/23 03:05:49;;;;;;;;;;;;;;;27.78;37.32;93773.19;4999853;28;7042;-56
2023/03/23 03:08:28;;;;;;;;;;;;;;;27.79;37.46;93769.16;5013000;28;7281;-56
2023/03/23 03:11:18;;;;;;;;;;;;;;;27.77;37.45;93766.94;5000085;28;7323;-56
2023/03/23 03:14:00;;;;;;;;;;;;;;;27.77;37.27;93766.19;5009442;28;8796;-56
2023/03/23 03:17:11;;;;;;;;;;;;;;;27.77;37.53;93761.41;5016375;28;7278;-56
2023/03/23 03:19:45;;;;;;;;;;;;;;;27.76;37.15;93759.16;5012912;28;7057;-56
2023/03/23 03:22:20;;;;;;;;;;;;;;;27.76;37.97;93756.41;5017560;28;9579;-56
2023/03/23 03:24:49;;;;;;;;;;;;;;;27.76;37.32;93753.63;5003682;28;7498;-56
2023/03/23 03:27:20;;;;;;;;;;;;;;;27.77;37.79;93741.31;5002798;28;8502;-56
2023/03/23 03:29:53;;;;;;;;;;;;;;;27.77;37.29;93744.09;5007861;28;7305;-56
2023/03/23 03:32:36;;;;;;;;;;;;;;;27.74;37.46;93736.88;5020152;28;7248;-56
2023/03/23 03:35:05;;;;;;;;;;;;;;;27.74;37.30;93732.09;5007613;28;7047;-56
2023/03/23 03:37:39;;;;;;;;;;;;;;;27.76;37.41;93720.47;5026747;28;7035;-56
2023/03/23 03:40:21;;;;;;;;;;;;;;;27.75;37.10;93724.53;5014793;28;9275;-56
2023/03/23 03:42:48;;;;;;;;;;;;;;;27.73;37.26;93721.59;5011276;28;8729;-56
2023/03/23 03:45:23;;;;;;;;;;;;;;;27.66;38.17;93723.00;5011105;28;9424;-56
2023/03/23 03:47:50;;;;;;;;;;;;;;;27.63;37.42;93719.28;5019621;28;8674;-56
2023/03/23 03:50:16;;;;;;;;;;;;;;;27.61;37.20;93723.88;5021027;28;9012;-56
2023/03/23 03:52:46;;;;;;;;;;;;;;;27.59;37.61;93718.91;5002254;28;7238;-56
2023/03/23 03:55:28;;;;;;;;;;;;;;;27.56;37.81;93719.97;5011317;28;8978;-56
2023/03/23 03:57:55;;;;;;;;;;;;;;;27.57;37.62;93720.72;5007324;28;7908;-56
2023/03/23 04:00:25;;;;;;;;;;;;;;;27.56;37.87;93722.72;5019475;28;7384;-56
2023/03/23 04:03:00;;;;;;;;;;;;;;;27.56;37.25;93724.75;5009125;28;7056;-56
2023/03/23 04:05:40;;;;;;;;;;;;;;;27.55;37.58;93718.50;5004758;28;9153;-56
2023/03/23 04:08:13;;;;;;;;;;;;;;;27.55;37.65;93712.97;5013889;28;7382;-56
2023/03/23 04:10:41;;;;;;;;;;;;;;;27.55;37.93;93704.69;4999284;28;7034;-56
2023/03/23 04:13:09;;;;;;;;;;;;;;;27.54;37.82;93711.47;4999517;28;9442;-56
2023/03/23 04:15:56;;;;;;;;;;;;;;;27.55;37.72;93707.44;5009941;28;8187;-56
2023/03/23 04:18:34;;;;;;;;;;;;;;;27.55;37.32;93704.69;5012867;28;7226;-56
2023/03/23 04:21:16;;;;;;;;;;;;;;;27.54;37.72;93699.69;5004647;28;9311;-56
2023/03/23 04:23:43;;;;;;;;;;;;;;;27.52;37.58;93703.00;5015609;28;7533;-56
2023/03/23 04:26:29;;;;;;;;;;;;;;;27.52;37.56;93696.72;5013903;28;7229;-56
2023/03/23 04:29:12;;;;;;;;;;;;;;;27.53;37.88;93698.22;5013785;28;7244;-56
2023/03/23 04:31:40;;;;;;;;;;;;;;;27.51;37.52;93690.44;5004349;28;7050;-56
2023/03/23 04:34:21;;;;;;;;;;;;;;;27.51;37.77;93695.97;5012813;28;7066;-56
2023/03/23 04:36:47;;;;;;;;;;;;;;;27.50;37.80;93686.22;5004756;28;7670;-56
2023/03/23 04:39:15;;;;;;;;;;;;;;;27.49;37.81;93692.28;5020294;28;7476;-56
2023/03/23 04:41:47;;;;;;;;;;;;;;;27.51;37.67;93695.97;5008905;28;8878;-56
2023/03/23 04:44:17;;;;;;;;;;;;;;;27.48;37.96;93674.97;5019968;28;7275;-56
2023/03/23 04:47:02;;;;;;;;;;;;;;;27.50;38.00;93682.72;5011529;28;7320;-56
2023/03/23 04:49:47;;;;;;;;;;;;;;;27.49;37.68;93684.72;5026196;28;7238;-56
2023/03/23 04:52:20;;;;;;;;;;;;;;;27.49;37.52;93692.28;5020216;28;9035;-56
2023/03/23 04:54:52;;;;;;;;;;;;;;;27.50;37.84;93699.28;4996730;28;9097;-56
2023/03/23 04:57:28;;;;;;;;;;;;;;;27.48;37.66;93697.06;5018591;28;7221;-56
2023/03/23 05:00:14;;;;;;;;;;;;;;;27.50;37.30;93697.28;5013137;28;9513;-56
2023/03/23 05:02:43;;;;;;;;;;;;;;;27.52;37.89;93703.00;5007879;28;8689;-56
2023/03/23 05:05:14;;;;;;;;;;;;;;;27.53;37.70;93704.47;5025503;28;7401;-56
2023/03/23 05:08:01;;;;;;;;;;;;;;;27.52;37.44;93714.03;5009988;28;8965;-56
2023/03/23 05:10:38;;;;;;;;;;;;;;;27.53;37.59;93706.50;5034110;28;7246;-56
2023/03/23 05:13:12;;;;;;;;;;;;;;;27.52;37.58;93702.25;5011510;28;9140;-56
2023/03/23 05:15:38;;;;;;;;;;;;;;;27.51;38.14;93717.34;5019425;28;7039;-56
2023/03/23 05:18:04;;;;;;;;;;;;;;;27.49;37.51;93714.38;5012548;28;7265;-56
2023/03/23 05:20:30;;;;;;;;;;;;;;;27.48;37.69;93702.59;5031726;28;9040;-56
2023/03/23 05:22:58;;;;;;;;;;;;;;;27.49;37.66;93709.59;5023075;28;7509;-56
2023/03/23 05:25:24;;;;;;;;;;;;;;;27.51;37.52;93709.06;5038525;28;7038;-56
2023/03/23 05:27:52;;;;;;;;;;;;;;;27.49;37.50;93706.81;5021990;28;9919;-56
2023/03/23 05:30:21;;;;;;;;;;;;;;;27.51;37.51;93707.03;5038497;28;8722;-56
2023/03/23 05:32:53;;;;;;;;;;;;;;;27.51;37.58;93712.53;5038027;28;7474;-56
2023/03/23 05:35:20;;;;;;;;;;;;;;;27.52;37.66;93713.28;5010417;28;7089;-56
2023/03/23 05:37:56;;;;;;;;;;;;;;;27.51;37.92;93700.78;5012121;28;7454;-56
2023/03/23 05:40:30;;;;;;;;;;;;;;;27.51;37.83;93718.06;5008575;28;7152;-56
2023/03/23 05:43:13;;;;;;;;;;;;;;;27.51;37.41;93712.53;5027971;28;7081;-56
2023/03/23 05:45:43;;;;;;;;;;;;;;;27.53;37.41;93715.50;5001577;28;9306;-56
2023/03/23 05:48:20;;;;;;;;;;;;;;;27.53;37.44;93715.50;5013423;28;7530;-56
2023/03/23 05:51:04;;;;;;;;;;;;;;;27.53;37.13;93715.50;5024960;28;7287;-56
2023/03/23 05:53:31;;;;;;;;;;;;;;;27.53;37.80;93718.28;5023783;28;9036;-56
2023/03/23 05:56:24;;;;;;;;;;;;;;;27.55;37.48;93718.50;5010700;28;7064;-56
2023/03/23 05:59:03;;;;;;;;;;;;;;;27.57;37.85;93721.47;5008243;28;7552;-56
2023/03/23 06:01:39;;;;;;;;;;;;;;;27.58;37.39;93725.69;5003617;28;7015;-56
2023/03/23 06:04:06;;;;;;;;;;;;;;;27.58;37.31;93716.66;5010427;28;9294;-56
2023/03/23 06:06:45;;;;;;;;;;;;;;;27.59;37.02;93724.41;5027225;28;7305;-56
2023/03/23 06:09:11;;;;;;;;;;;;;;;27.58;37.48;93725.69;5025356;28;7108;-56
2023/03/23 06:12:07;;;;;;;;;;;;;;;27.58;37.67;93736.75;5010810;28;8924;-56
2023/03/23 06:14:48;;;;;;;;;;;;;;;27.53;37.40;93734.84;4994482;28;7329;-56
2023/03/23 06:17:19;;;;;;;;;;;;;;;27.53;37.59;93737.59;4979326;28;9020;-56
2023/03/23 06:20:10;;;;;;;;;;;;;;;27.58;37.62;93736.75;4959260;28;7046;-56
2023/03/23 06:22:45;;;;;;;;;;;;;;;27.57;37.34;93740.03;4964554;28;8600;-56
2023/03/23 06:25:15;;;;;;;;;;;;;;;27.56;37.27;93746.84;4973359;28;9226;-56
2023/03/23 06:27:53;;;;;;;;;;;;;;;27.54;37.21;93736.34;4971920;28;7018;-56
2023/03/23 06:30:21;;;;;;;;;;;;;;;27.52;37.29;93741.66;4972684;28;8303;-56
2023/03/23 06:33:09;;;;;;;;;;;;;;;27.51;37.10;93748.44;4994026;28;7327;-56
2023/03/23 06:36:06;;;;;;;;;;;;;;;27.54;37.48;93736.34;4982769;28;9205;-56
2023/03/23 06:38:47;;;;;;;;;;;;;;;27.56;37.36;93757.88;4954399;28;8866;-56
2023/03/23 06:41:22;;;;;;;;;;;;;;;27.52;37.17;93757.50;4951827;28;8720;-56
2023/03/23 06:43:58;;;;;;;;;;;;;;;27.54;36.59;93741.88;4949659;28;9269;-56
2023/03/23 06:47:02;;;;;;;;;;;;;;;27.57;37.04;93776.72;4930871;28;7233;-56
2023/03/23 06:49:37;;;;;;;;;;;;;;;27.55;37.12;93739.84;4953954;28;9592;-56
2023/03/23 06:52:13;;;;;;;;;;;;;;;27.54;36.99;93763.97;4955885;28;9271;-56
2023/03/23 06:54:39;;;;;;;;;;;;;;;27.52;37.34;93774.06;4975174;28;9297;-56
2023/03/23 06:57:06;;;;;;;;;;;;;;;27.55;37.17;93737.09;4968923;28;7433;-56
2023/03/23 06:59:32;;;;;;;;;;;;;;;27.55;37.33;93732.31;4969599;28;7139;-56
2023/03/23 07:01:58;;;;;;;;;;;;;;;27.50;37.15;93763.56;4980980;28;7245;-56
2023/03/23 07:04:24;;;;;;;;;;;;;;;27.51;37.87;93756.75;4980724;28;7018;-56
2023/03/23 07:06:50;;;;;;;;;;;;;;;27.50;37.47;93749.75;4971129;28;9383;-56
2023/03/23 07:09:20;;;;;;;;;;;;;;;27.51;37.33;93778.84;4983104;28;9119;-56
2023/03/23 07:11:47;;;;;;;;;;;;;;;27.54;37.33;93754.94;4955627;28;9343;-56
2023/03/23 07:14:14;;;;;;;;;;;;;;;27.53;37.51;93747.94;4977576;28;7207;-56
2023/03/23 07:16:41;;;;;;;;;;;;;;;27.53;37.13;93756.22;5003188;28;9287;-56
2023/03/23 07:19:06;;;;;;;;;;;;;;;27.55;37.26;93759.19;5023815;28;7369;-56
2023/03/23 07:21:34;;;;;;;;;;;;;;;27.52;37.35;93761.00;5003376;28;9307;-56
2023/03/23 07:24:00;;;;;;;;;;;;;;;27.53;37.19;93768.00;5023117;28;7052;-56
2023/03/23 07:26:27;;;;;;;;;;;;;;;27.53;37.17;93781.81;5023007;28;7340;-56
2023/03/23 07:28:57;;;;;;;;;;;;;;;27.55;37.58;93779.28;5010011;28;7296;-56
2023/03/23 07:31:26;;;;;;;;;;;;;;;27.54;37.11;93783.31;5014244;28;9047;-56
2023/03/23 07:34:02;;;;;;;;;;;;;;;27.53;37.01;93784.56;5013572;28;7128;-56
2023/03/23 07:36:32;;;;;;;;;;;;;;;27.56;37.12;93782.75;5004411;28;9671;-56
2023/03/23 07:39:54;;;;;;;;;;;;;;;27.57;37.01;93793.28;5015113;28;7782;-56
2023/03/23 07:42:20;;;;;;;;;;;;;;;27.54;37.40;93797.13;4977439;28;7179;-56
2023/03/23 07:44:56;;;;;;;;;;;;;;;27.53;37.44;93783.84;4992561;28;7669;-56
2023/03/23 07:47:55;;;;;;;;;;;;;;;27.52;37.14;93790.63;4958205;28;9147;-56
2023/03/23 07:50:50;;;;;;;;;;;;;;;27.51;37.37;93795.41;4974790;28;9523;-56
2023/03/23 07:53:23;;;;;;;;;;;;;;;27.51;37.22;93794.69;4934925;29;9200;-56
2023/03/23 07:55:55;;;;;;;;;;;;;;;27.49;37.24;93797.97;4919259;29;7250;-56
2023/03/23 07:58:30;;;;;;;;;;;;;;;27.50;37.30;93812.53;4927363;29;9409;-56
2023/03/23 08:00:58;;;;;;;;;;;;;;;27.49;37.19;93820.06;4925927;29;6907;-56
2023/03/23 08:03:26;;;;;;;;;;;;;;;27.49;36.93;93822.13;4915076;29;7044;-56
2023/03/23 08:05:53;;;;;;;;;;;;;;;27.52;37.26;93812.72;4917936;29;9454;-56
2023/03/23 08:08:30;;;;;;;;;;;;;;;27.51;36.84;93816.78;4918641;29;7322;-56
2023/03/23 08:10:58;;;;;;;;;;;;;;;27.51;37.07;93806.47;4916148;29;7262;-56
2023/03/23 08:13:26;;;;;;;;;;;;;;;27.49;37.19;93808.31;4924685;29;7296;-56
2023/03/23 08:15:52;;;;;;;;;;;;;;;27.50;37.34;93807.75;4940952;28;7209;-56
2023/03/23 08:18:18;;;;;;;;;;;;;;;27.51;37.34;93811.28;4970734;28;7270;-56
2023/03/23 08:20:44;;;;;;;;;;;;;;;27.51;37.21;93814.75;4970740;28;7121;-56
2023/03/23 08:23:14;;;;;;;;;;;;;;;27.52;37.30;93813.47;4970282;28;9532;-56
2023/03/23 08:25:43;;;;;;;;;;;;;;;27.54;36.81;93821.97;4954962;28;9375;-56
2023/03/23 08:28:10;;;;;;;;;;;;;;;27.54;37.41;93818.47;4970417;28;9371;-56
2023/03/23 08:30:42;;;;;;;;;;;;;;;27.54;37.40;93821.22;4991376;28;7276;-56
2023/03/23 08:33:10;;;;;;;;;;;;;;;27.53;37.48;93828.75;5024663;28;9034;-56
2023/03/23 08:35:38;;;;;;;;;;;;;;;27.53;37.50;93831.53;5014277;28;7257;-56
2023/03/23 08:38:12;;;;;;;;;;;;;;;27.54;37.27;93835.78;5021357;28;9383;-56
2023/03/23 08:40:39;;;;;;;;;;;;;;;27.52;37.20;93834.84;5009155;28;7208;-56
2023/03/23 08:43:06;;;;;;;;;;;;;;;27.51;37.49;93828.56;5022955;28;7259;-56
2023/03/23 08:45:52;;;;;;;;;;;;;;;27.53;37.35;93837.06;5010086;28;9288;-56
2023/03/23 08:48:28;;;;;;;;;;;;;;;27.54;37.65;93841.31;5012715;28;7077;-56
2023/03/23 08:51:06;;;;;;;;;;;;;;;27.54;37.50;93841.31;5014711;28;7142;-56
2023/03/23 08:53:39;;;;;;;;;;;;;;;27.53;37.43;93847.38;5006433;28;7614;-56
2023/03/23 08:56:07;;;;;;;;;;;;;;;27.56;37.78;93844.28;5019931;28;7291;-56
2023/03/23 08:58:56;;;;;;;;;;;;;;;27.56;37.46;93841.50;5009304;28;9003;-56
2023/03/23 09:01:30;;;;;;;;;;;;;;;27.56;37.56;93843.53;5012268;28;7036;-56
2023/03/23 09:03:59;;;;;;;;;;;;;;;27.57;37.87;93854.06;5015463;28;7038;-56
2023/03/23 09:06:42;;;;;;;;;;;;;;;27.54;37.71;93851.59;5002703;28;7061;-56
2023/03/23 09:09:09;;;;;;;;;;;;;;;27.55;37.72;93853.84;5018475;28;9017;-56
2023/03/23 09:11:41;;;;;;;;;;;;;;;27.53;37.43;93861.91;5025210;28;7298;-56
2023/03/23 09:14:41;;;;;;;;;;;;;;;27.54;37.78;93860.66;5019534;28;9405;-56
2023/03/23 09:17:10;;;;;;;;;;;;;;;27.55;37.61;93867.66;4955469;28;9089;-56
2023/03/23 09:19:37;;;;;;;;;;;;;;;27.53;37.52;93866.72;4952735;28;9394;-56
2023/03/23 09:22:05;;;;;;;;;;;;;;;27.50;37.31;93868.53;4960635;28;7348;-56
2023/03/23 09:24:40;;;;;;;;;;;;;;;27.54;37.70;93879.97;4954330;28;9698;-56
2023/03/23 09:27:07;;;;;;;;;;;;;;;27.54;37.65;93876.47;4953493;28;8867;-56
2023/03/23 09:29:33;;;;;;;;;;;;;;;27.56;37.29;93879.44;4942525;28;7114;-56
2023/03/23 09:31:59;;;;;;;;;;;;;;;27.55;37.73;93880.72;4952509;28;7239;-56
2023/03/23 09:34:29;;;;;;;;;;;;;;;27.55;37.57;93881.47;4950684;28;7045;-56
2023/03/23 09:36:55;;;;;;;;;;;;;;;27.56;37.55;93877.44;4952651;28;9693;-56
2023/03/23 09:39:21;;;;;;;;;;;;;;;27.58;37.41;93877.63;4970073;28;7050;-56
2023/03/23 09:42:11;;;;;;;;;;;;;;;27.56;37.48;93871.91;4975763;28;9540;-56
2023/03/23 09:44:41;;;;;;;;;;;;;;;27.55;37.52;93870.44;4955855;28;9165;-57
2023/03/23 09:47:50;;;;;;;;;;;;;;;27.50;37.47;93870.53;4967046;28;7790;-56
2023/03/23 09:50:32;;;;;;;;;;;;;;;27.46;37.69;93876.41;4964802;28;7862;-56
2023/03/23 09:53:34;;;;;;;;;;;;;;;27.45;37.56;93874.91;4982278;28;7017;-56
2023/03/23 09:56:29;;;;;;;;;;;;;;;27.45;37.88;93885.22;4997139;28;9148;-56
2023/03/23 09:59:50;;;;;;;;;;;;;;;27.44;38.09;93890.00;4981069;28;7256;-56
2023/03/23 10:03:04;;;;;;;;;;;;;;;27.45;37.67;93879.69;4936043;29;9076;-56
2023/03/23 10:05:42;;;;;;;;;;;;;;;27.44;37.94;93884.47;4923010;29;7944;-56
2023/03/23 10:08:39;;;;;;;;;;;;;;;27.43;37.81;93883.00;4920203;29;8991;-56
2023/03/23 10:11:49;;;;;;;;;;;;;;;27.45;37.45;93874.16;4934307;29;7277;-56
2023/03/23 10:14:54;;;;;;;;;;;;;;;27.44;37.71;93878.97;4925698;29;8138;-56
2023/03/23 10:17:30;;;;;;;;;;;;;;;27.42;37.64;93876.00;4866025;29;8044;-56
2023/03/23 10:20:32;;;;;;;;;;;;;;;27.40;37.49;93878.56;4874887;29;8572;-56
2023/03/23 10:23:18;;;;;;;;;;;;;;;27.40;38.04;93875.78;4870459;29;7346;-56
2023/03/23 10:26:36;;;;;;;;;;;;;;;27.42;37.58;93876.00;4874318;29;7518;-56
2023/03/23 10:29:06;;;;;;;;;;;;;;;27.39;37.50;93870.78;4810408;29;9261;-56
2023/03/23 10:32:11;;;;;;;;;;;;;;;27.41;37.67;93877.25;4801431;29;6993;-56
2023/03/23 10:35:01;;;;;;;;;;;;;;;27.40;37.14;93884.06;4809642;29;7607;-56
2023/03/23 10:37:43;;;;;;;;;;;;;;;27.41;37.35;93874.50;4878183;29;7235;-56
2023/03/23 10:40:56;;;;;;;;;;;;;;;27.41;37.41;93884.78;4879759;29;9089;-56
2023/03/23 10:43:37;;;;;;;;;;;;;;;27.41;37.36;93874.50;4897051;29;7362;-56
2023/03/23 10:46:53;;;;;;;;;;;;;;;27.44;37.47;93875.44;4896041;29;7066;-56
2023/03/23 10:49:48;;;;;;;;;;;;;;;27.44;37.71;93869.94;4878268;29;7934;-56
2023/03/23 10:52:34;;;;;;;;;;;;;;;27.43;37.20;93871.94;4876566;29;7115;-56
2023/03/23 10:55:14;;;;;;;;;;;;;;;27.42;37.66;93859.44;4924630;28;7249;-56
2023/03/23 10:58:12;;;;;;;;;;;;;;;27.45;37.49;93872.16;4948113;28;9432;-56
2023/03/23 11:01:00;;;;;;;;;;;;;;;27.47;37.49;93866.09;4898866;29;9676;-56
2023/03/23 11:04:22;;;;;;;;;;;;;;;27.43;37.32;93869.19;4915507;28;9450;-56
2023/03/23 11:07:02;;;;;;;;;;;;;;;27.42;37.33;93864.19;4920017;29;9203;-56
2023/03/23 11:09:40;;;;;;;;;;;;;;;27.42;37.21;93861.44;4919778;29;9091;-56
2023/03/23 11:12:23;;;;;;;;;;;;;;;27.41;37.62;93871.75;4920469;29;7256;-56
2023/03/23 11:14:51;;;;;;;;;;;;;;;27.44;38.04;93867.16;4920479;29;7007;-56
2023/03/23 11:17:27;;;;;;;;;;;;;;;27.43;37.47;93860.88;4935957;29;9172;-56
2023/03/23 11:20:11;;;;;;;;;;;;;;;27.47;37.17;93868.88;4920072;29;7807;-56
2023/03/23 11:22:55;;;;;;;;;;;;;;;27.47;37.80;93861.31;4935557;29;9424;-56
2023/03/23 11:25:30;;;;;;;;;;;;;;;27.47;37.49;93857.81;4935909;28;7639;-56
2023/03/23 11:28:15;;;;;;;;;;;;;;;27.47;37.09;93860.59;4920334;29;9168;-56
2023/03/23 11:30:59;;;;;;;;;;;;;;;27.45;37.44;93861.09;4935696;29;9352;-56
2023/03/23 11:33:47;;;;;;;;;;;;;;;27.43;37.47;93849.09;4936078;29;7536;-56
2023/03/23 11:36:32;;;;;;;;;;;;;;;27.40;37.11;93855.72;4920296;29;7530;-56
2023/03/23 11:39:22;;;;;;;;;;;;;;;27.41;37.28;93849.63;4920080;28;9453;-56
2023/03/23 11:41:48;;;;;;;;;;;;;;;27.41;37.88;93846.88;5008322;28;7245;-56
2023/03/23 11:44:31;;;;;;;;;;;;;;;27.44;37.45;93834.78;5025167;28;7335;-56
2023/03/23 11:47:24;;;;;;;;;;;;;;;27.49;37.51;93847.69;5019500;28;9934;-56
2023/03/23 11:50:23;;;;;;;;;;;;;;;27.50;37.41;93854.72;5007229;28;7366;-56
2023/03/23 11:53:15;;;;;;;;;;;;;;;27.53;37.52;93847.38;5001852;28;9390;-56
2023/03/23 11:56:26;;;;;;;;;;;;;;;27.58;37.17;93861.06;5009579;28;7256;-56
2023/03/23 11:59:33;;;;;;;;;;;;;;;27.60;37.02;93841.91;4990655;28;8209;-56
2023/03/23 12:02:23;;;;;;;;;;;;;;;27.63;37.05;93831.81;4935493;29;9053;-56
2023/03/23 12:05:28;;;;;;;;;;;;;;;27.63;37.07;93824.28;4935110;29;7637;-56
2023/03/23 12:08:31;;;;;;;;;;;;;;;27.66;37.22;93827.25;4935149;29;7266;-56
2023/03/23 12:11:20;;;;;;;;;;;;;;;27.66;37.19;93830.75;4927514;29;7046;-56
2023/03/23 12:14:34;;;;;;;;;;;;;;;27.70;36.96;93833.16;4934833;29;7008;-56
2023/03/23 12:17:51;;;;;;;;;;;;;;;27.68;37.04;93828.19;4875623;29;7692;-56
2023/03/23 12:21:01;;;;;;;;;;;;;;;27.72;37.11;93825.84;4862980;29;8967;-56
2023/03/23 12:23:56;;;;;;;;;;;;;;;27.71;37.04;93821.56;4876074;29;7025;-56
2023/03/23 12:26:53;;;;;;;;;;;;;;;27.70;37.15;93819.34;4878510;29;7274;-56
2023/03/23 12:33:45;;;;;;;;;;;;;;;27.73;36.98;93812.75;4841122;29;7634;-56
2023/03/23 12:36:47;;;;;;;;;;;;;;;27.72;36.48;93814.03;4826392;29;7266;-56
2023/03/23 12:39:34;;;;;;;;;;;;;;;27.73;36.95;93807.25;4862782;29;7228;-56
2023/03/23 12:42:44;;;;;;;;;;;;;;;27.74;37.04;93805.94;4865619;29;9101;-56
2023/03/23 12:45:22;;;;;;;;;;;;;;;27.74;37.01;93795.63;4863119;29;8298;-56
2023/03/23 12:48:32;;;;;;;;;;;;;;;27.75;37.14;93801.91;4863352;29;6945;-56
2023/03/23 12:51:15;;;;;;;;;;;;;;;27.76;37.00;93795.84;4845669;29;9041;-56
2023/03/23 12:54:21;;;;;;;;;;;;;;;27.78;37.00;93801.56;4892777;29;9444;-56
2023/03/23 12:57:11;;;;;;;;;;;;;;;27.77;36.79;93799.34;4917790;29;8572;-56
2023/03/23 13:03:23;;;;;;;;;;;;;;;27.73;36.36;93802.44;4897900;29;7626;-56
2023/03/23 13:06:33;;;;;;;;;;;;;;;27.76;36.86;93797.84;4881555;29;7461;-56
2023/03/23 13:09:35;;;;;;;;;;;;;;;27.76;36.80;93800.63;4851303;29;9118;-56
2023/03/23 13:12:05;;;;;;;;;;;;;;;27.79;36.77;93796.78;4860062;29;7040;-56
2023/03/23 13:15:10;;;;;;;;;;;;;;;27.79;36.95;93788.50;4870795;29;9101;-56
2023/03/23 13:17:58;;;;;;;;;;;;;;;27.77;37.40;93791.06;4892757;29;9113;-56
2023/03/23 13:20:48;;;;;;;;;;;;;;;27.75;36.90;93788.84;4868197;29;7040;-56
2023/03/23 13:23:41;;;;;;;;;;;;;;;27.81;36.76;93791.47;4864022;29;7126;-56
2023/03/23 13:26:21;;;;;;;;;;;;;;;27.79;36.91;93789.25;4965133;28;7491;-56
2023/03/23 13:29:08;;;;;;;;;;;;;;;27.78;36.99;93784.22;4969321;28;9164;-56
2023/03/23 13:31:49;;;;;;;;;;;;;;;27.76;36.91;93781.28;4952289;28;6962;-56
2023/03/23 13:34:31;;;;;;;;;;;;;;;27.72;36.81;93772.59;4953199;28;7127;-56
2023/03/23 13:37:21;;;;;;;;;;;;;;;27.76;37.22;93775.75;4936553;28;7237;-57
2023/03/23 13:40:27;;;;;;;;;;;;;;;27.76;36.60;93784.03;4978135;28;7468;-56
2023/03/23 13:43:26;;;;;;;;;;;;;;;27.71;36.72;93780.13;5005516;28;7530;-56
2023/03/23 13:46:20;;;;;;;;;;;;;;;27.74;36.62;93779.06;4926732;28;7324;-56
2023/03/23 13:49:03;;;;;;;;;;;;;;;27.75;36.87;93777.03;4949968;28;7940;-56
2023/03/23 13:51:56;;;;;;;;;;;;;;;27.75;36.74;93783.31;4926657;28;7864;-56
2023/03/23 13:55:15;;;;;;;;;;;;;;;27.75;36.60;93785.34;4924810;29;9347;-56
2023/03/23 13:58:02;;;;;;;;;;;;;;;27.76;36.79;93781.28;4856550;29;7445;-56
2023/03/23 14:01:25;;;;;;;;;;;;;;;27.77;36.74;93780.00;4874848;29;7113;-57
2023/03/23 14:04:49;;;;;;;;;;;;;;;27.78;36.84;93784.22;4870883;29;7261;-56
2023/03/23 14:07:19;;;;;;;;;;;;;;;27.79;36.67;93785.72;4809321;29;7318;-56
2023/03/23 14:10:07;;;;;;;;;;;;;;;27.79;36.57;93785.72;4828553;29;8966;-56
2023/03/23 14:12:35;;;;;;;;;;;;;;;27.79;36.40;93780.22;4817802;29;7508;-56
2023/03/23 14:15:06;;;;;;;;;;;;;;;27.76;36.98;93781.28;4826940;29;8976;-56